Time;durP1;ratioP1;P1;durP2;ratioP2;P2;SDS_P1;SDS_P2;PMS_P1;PMS_P2;Temp;Humidity;BMP_temperature;BMP_pressure;BME280_temperature;BME280_humidity;BME280_pressure;Samples;Min_cycle;Max_cycle;Signal;HPM_P1;HPM_P2
2022/04/19 00:00:48;;;;;;;7.32;4.65;;;8.70;99.10;;;;;;5116743;28;20040;-77
2022/04/19 00:03:15;;;;;;;9.38;4.40;;;8.60;99.90;;;;;;5116639;28;20047;-77
2022/04/19 00:05:44;;;;;;;7.63;4.18;;;8.60;99.90;;;;;;5116605;28;20043;-78
2022/04/19 00:08:11;;;;;;;8.30;4.38;;;8.60;99.90;;;;;;5116409;28;20122;-78
2022/04/19 00:10:38;;;;;;;8.05;4.35;;;8.60;99.90;;;;;;5116484;27;20047;-77
2022/04/19 00:13:06;;;;;;;8.73;3.92;;;8.60;99.90;;;;;;5116803;28;20388;-78
2022/04/19 00:15:31;;;;;;;7.97;4.88;;;8.50;99.90;;;;;;5116245;28;20126;-78
2022/04/19 00:17:59;;;;;;;10.80;4.80;;;8.50;99.90;;;;;;5116224;28;20126;-78
2022/04/19 00:20:25;;;;;;;7.45;4.22;;;8.40;99.90;;;;;;5116343;28;20070;-79
2022/04/19 00:22:51;;;;;;;7.95;4.88;;;8.30;99.90;;;;;;5116305;28;20083;-78
2022/04/19 00:25:18;;;;;;;8.77;5.32;;;8.20;99.90;;;;;;5116444;28;20100;-79
2022/04/19 00:27:43;;;;;;;10.85;6.07;;;8.10;99.90;;;;;;5116213;28;20130;-79
2022/04/19 00:30:10;;;;;;;10.85;4.97;;;8.00;99.90;;;;;;5115883;28;20079;-79
2022/04/19 00:32:36;;;;;;;;;;;7.90;99.90;;;;;;5115377;28;20047;-78
2022/04/19 00:35:03;;;;;;;10.52;5.85;;;7.90;99.90;;;;;;5115976;28;20283;-78
2022/04/19 00:37:29;;;;;;;8.90;5.40;;;7.80;99.90;;;;;;5115704;28;20039;-77
2022/04/19 00:39:57;;;;;;;8.93;5.40;;;7.80;99.90;;;;;;5114615;28;20104;-79
2022/04/19 00:42:27;;;;;;;9.23;5.50;;;7.80;99.90;;;;;;5115740;28;20044;-78
2022/04/19 00:44:53;;;;;;;8.82;5.57;;;7.80;99.90;;;;;;5098284;28;20368;-77
2022/04/19 00:47:19;;;;;;;8.63;5.68;;;7.80;99.90;;;;;;5115775;28;20042;-78
2022/04/19 00:49:45;;;;;;;10.02;5.45;;;7.70;99.90;;;;;;5115680;28;20104;-77
2022/04/19 00:52:11;;;;;;;9.75;5.95;;;7.70;99.90;;;;;;5114698;28;20051;-78
2022/04/19 00:54:37;;;;;;;9.95;5.68;;;7.70;99.90;;;;;;5115539;28;20502;-78
2022/04/19 00:57:03;;;;;;;10.95;6.13;;;7.70;99.90;;;;;;5115394;28;20070;-78
2022/04/19 00:59:29;;;;;;;11.25;6.65;;;7.70;99.90;;;;;;5115393;28;20036;-78
2022/04/19 01:01:55;;;;;;;8.93;5.90;;;7.70;99.90;;;;;;5115383;28;20051;-78
2022/04/19 01:04:21;;;;;;;11.68;6.47;;;7.60;99.90;;;;;;5115364;28;20044;-78
2022/04/19 01:06:46;;;;;;;11.07;5.90;;;7.50;99.90;;;;;;5114481;28;20032;-77
2022/04/19 01:09:13;;;;;;;12.73;6.30;;;7.50;99.90;;;;;;5115732;28;20035;-77
2022/04/19 01:14:24;;;;;;;11.82;7.15;;;7.40;99.90;;;;;;5115454;28;20310;-77
2022/04/19 01:16:50;;;;;;;11.90;6.85;;;7.50;99.90;;;;;;5115039;28;20035;-77
2022/04/19 01:19:15;;;;;;;10.65;6.03;;;7.50;99.90;;;;;;5114985;28;20054;-77
2022/04/19 01:21:54;;;;;;;10.57;6.65;;;7.50;99.90;;;;;;5114673;28;20039;-78
2022/04/19 01:24:21;;;;;;;11.77;6.25;;;7.50;99.90;;;;;;5114982;28;20148;-77
2022/04/19 01:26:48;;;;;;;13.52;6.30;;;7.40;99.90;;;;;;5114935;28;20040;-77
2022/04/19 01:29:15;;;;;;;11.35;6.90;;;7.40;99.90;;;;;;5113871;28;20065;-79
2022/04/19 01:31:41;;;;;;;9.63;6.47;;;7.30;99.90;;;;;;5115095;28;20039;-78
2022/04/19 01:34:07;;;;;;;;;;;7.20;99.90;;;;;;5115144;28;20479;-77
2022/04/19 01:36:36;;;;;;;11.05;6.55;;;7.20;99.90;;;;;;5115061;28;19945;-77
2022/04/19 01:39:06;;;;;;;13.02;6.90;;;7.10;99.90;;;;;;5114770;28;20051;-78
2022/04/19 01:41:32;;;;;;;12.25;7.07;;;7.10;99.90;;;;;;5114604;28;20039;-76
2022/04/19 01:43:59;;;;;;;12.25;6.85;;;7.10;99.90;;;;;;5114733;28;20047;-78
2022/04/19 01:46:26;;;;;;;14.75;7.72;;;7.10;99.90;;;;;;5114515;28;20050;-77
2022/04/19 01:48:55;;;;;;;11.20;7.25;;;7.10;99.90;;;;;;5114543;28;20048;-78
2022/04/19 01:51:21;;;;;;;11.68;6.43;;;7.10;99.90;;;;;;5113555;28;20065;-79
2022/04/19 01:53:48;;;;;;;11.18;7.10;;;7.10;99.90;;;;;;5114674;28;20047;-79
2022/04/19 01:56:14;;;;;;;13.23;7.32;;;7.00;99.90;;;;;;5114346;28;20050;-79
2022/04/19 01:58:39;;;;;;;13.18;6.85;;;6.90;99.90;;;;;;5113420;28;20043;-80
2022/04/19 02:01:05;;;;;;;12.45;7.47;;;6.80;99.90;;;;;;5114331;28;20039;-78
2022/04/19 02:03:30;;;;;;;12.98;7.15;;;6.70;99.90;;;;;;5114362;28;20050;-79
2022/04/19 02:05:56;;;;;;;13.20;8.13;;;6.70;99.90;;;;;;5114366;28;20036;-78
2022/04/19 02:08:22;;;;;;;13.30;7.50;;;6.60;99.90;;;;;;5114359;28;20082;-78
2022/04/19 02:10:47;;;;;;;15.07;8.30;;;6.50;99.90;;;;;;5113265;28;20047;-79
2022/04/19 02:13:13;;;;;;;13.63;8.20;;;6.40;99.90;;;;;;5114230;28;20051;-79
2022/04/19 02:15:39;;;;;;;13.05;7.78;;;6.40;99.90;;;;;;5114061;28;20130;-78
2022/04/19 02:18:05;;;;;;;11.85;7.22;;;6.50;99.90;;;;;;5115259;28;20051;-79
2022/04/19 02:20:31;;;;;;;13.80;7.65;;;6.50;99.90;;;;;;5120810;28;20475;-80
2022/04/19 02:22:57;;;;;;;13.57;7.93;;;6.50;99.90;;;;;;5121028;27;20043;-78
2022/04/19 02:25:24;;;;;;;18.58;9.05;;;6.40;99.90;;;;;;5120014;28;20047;-77
2022/04/19 02:27:50;;;;;;;14.48;7.78;;;6.30;99.90;;;;;;5121060;27;20054;-79
2022/04/19 02:30:16;;;;;;;14.65;8.95;;;6.30;99.90;;;;;;5120882;28;20399;-78
2022/04/19 02:32:47;;;;;;;17.67;8.15;;;6.20;99.90;;;;;;5120966;27;20079;-77
2022/04/19 02:35:18;;;;;;;13.63;7.65;;;6.20;99.90;;;;;;5120880;27;20048;-78
2022/04/19 02:37:51;;;;;;;13.63;8.48;;;6.10;99.90;;;;;;5120910;27;20039;-78
2022/04/19 02:40:22;;;;;;;14.00;8.20;;;6.10;99.90;;;;;;5121030;27;20039;-79
2022/04/19 02:42:49;;;;;;;14.50;7.63;;;6.10;99.90;;;;;;5120821;27;20050;-77
2022/04/19 02:45:15;;;;;;;16.25;8.27;;;6.10;99.90;;;;;;5119830;28;20372;-78
2022/04/19 02:47:43;;;;;;;14.15;8.63;;;6.10;99.90;;;;;;5120686;28;20043;-77
2022/04/19 02:50:09;;;;;;;15.25;8.20;;;6.10;99.90;;;;;;5120835;27;20050;-78
2022/04/19 02:52:34;;;;;;;13.20;8.23;;;6.00;99.90;;;;;;5102764;28;20130;-78
2022/04/19 02:55:00;;;;;;;13.82;8.15;;;6.00;99.90;;;;;;5120807;28;20519;-78
2022/04/19 02:57:26;;;;;;;20.73;9.30;;;6.00;99.90;;;;;;5120511;28;20051;-79
2022/04/19 02:59:53;;;;;;;12.57;7.50;;;6.00;99.90;;;;;;5120677;27;20048;-79
2022/04/19 03:02:19;;;;;;;14.70;8.07;;;5.90;99.90;;;;;;5120762;27;20051;-79
2022/04/19 03:04:44;;;;;;;13.52;8.13;;;5.90;99.90;;;;;;5120549;27;20053;-78
2022/04/19 03:07:13;;;;;;;15.02;8.05;;;5.90;99.90;;;;;;5120546;28;20044;-79
2022/04/19 03:09:42;;;;;;;13.77;8.13;;;5.90;99.90;;;;;;5119629;28;20047;-79
2022/04/19 03:12:10;;;;;;;14.23;8.02;;;5.90;99.90;;;;;;5120695;28;20124;-80
2022/04/19 03:14:36;;;;;;;12.75;7.45;;;5.90;99.90;;;;;;5120569;27;20087;-79
2022/04/19 03:17:02;;;;;;;13.57;8.27;;;5.90;99.90;;;;;;5120438;27;20046;-79
2022/04/19 03:19:28;;;;;;;18.73;8.18;;;5.80;99.90;;;;;;5120521;27;20044;-79
2022/04/19 03:21:53;;;;;;;13.68;7.97;;;5.80;99.90;;;;;;5120277;28;20047;-78
2022/04/19 03:29:47;;;;;;;14.68;8.52;;;5.70;99.90;;;;;;5118495;28;20139;-77
2022/04/19 03:32:14;;;;;;;14.30;7.60;;;5.70;99.90;;;;;;5117012;28;20126;-80
2022/04/19 03:34:40;;;;;;;14.45;8.32;;;5.70;99.90;;;;;;5116460;28;20048;-79
2022/04/19 03:37:05;;;;;;;14.52;7.60;;;5.60;99.90;;;;;;5116975;28;20036;-79
2022/04/19 03:39:31;;;;;;;13.18;7.78;;;5.60;99.90;;;;;;5117033;28;20055;-78
2022/04/19 03:41:58;;;;;;;14.80;8.40;;;5.50;99.90;;;;;;5117033;28;20043;-79
2022/04/19 03:44:27;;;;;;;15.13;8.52;;;5.50;99.90;;;;;;5116795;28;20496;-78
2022/04/19 03:47:08;;;;;;;14.70;8.68;;;5.50;99.90;;;;;;5116021;28;20047;-77
2022/04/19 03:49:38;;;;;;;12.38;7.93;;;5.40;99.90;;;;;;5116817;28;20062;-78
2022/04/19 03:52:04;;;;;;;16.52;8.65;;;5.40;99.90;;;;;;5116863;28;20074;-77
2022/04/19 03:54:34;;;;;;;11.52;7.03;;;5.40;99.90;;;;;;5117153;28;20047;-78
2022/04/19 03:57:04;;;;;;;14.00;7.88;;;5.40;99.90;;;;;;5116611;28;20403;-79
2022/04/19 03:59:31;;;;;;;13.02;7.85;;;5.40;99.90;;;;;;5116685;28;20043;-77
2022/04/19 04:01:57;;;;;;;13.27;7.82;;;5.30;99.90;;;;;;5116673;28;20506;-77
2022/04/19 04:04:22;;;;;;;11.27;6.80;;;5.30;99.90;;;;;;5117154;28;20047;-79
2022/04/19 04:06:48;;;;;;;13.30;7.60;;;5.20;99.90;;;;;;5116510;28;20040;-78
2022/04/19 04:09:14;;;;;;;11.30;7.32;;;5.20;99.90;;;;;;5115517;28;20046;-79
2022/04/19 04:11:39;;;;;;;13.82;7.85;;;5.20;99.90;;;;;;5116261;28;20075;-79
2022/04/19 04:14:05;;;;;;;30.67;10.15;;;5.20;99.90;;;;;;5116131;28;20122;-78
2022/04/19 04:16:30;;;;;;;13.48;8.57;;;5.20;99.90;;;;;;5114932;28;20096;-78
2022/04/19 04:18:56;;;;;;;11.82;7.30;;;5.20;99.90;;;;;;5116154;28;20039;-79
2022/04/19 04:21:21;;;;;;;12.18;7.40;;;5.20;99.90;;;;;;5116351;28;20044;-79
2022/04/19 04:23:47;;;;;;;13.25;7.72;;;5.20;99.90;;;;;;5116254;28;20368;-79
2022/04/19 04:26:12;;;;;;;12.52;7.80;;;5.20;99.90;;;;;;5116388;28;20040;-78
2022/04/19 04:28:38;;;;;;;14.68;7.93;;;5.20;99.90;;;;;;5116116;28;20066;-78
2022/04/19 04:31:04;;;;;;;12.18;7.55;;;5.20;99.90;;;;;;5116067;28;20047;-78
2022/04/19 04:33:29;;;;;;;12.50;7.88;;;5.20;99.90;;;;;;5116031;28;20510;-79
2022/04/19 04:35:55;;;;;;;13.43;7.97;;;5.20;99.90;;;;;;5115776;28;20135;-77
2022/04/19 04:38:20;;;;;;;12.98;7.90;;;5.20;99.90;;;;;;5114769;28;20047;-79
2022/04/19 04:40:46;;;;;;;12.95;7.88;;;5.10;99.90;;;;;;5115500;28;20126;-77
2022/04/19 04:43:11;;;;;;;13.85;7.95;;;5.10;99.90;;;;;;5114824;28;20044;-78
2022/04/19 04:45:37;;;;;;;12.98;7.40;;;5.10;99.90;;;;;;5115731;28;20040;-78
2022/04/19 04:50:48;;;;;;;13.95;8.25;;;5.10;99.90;;;;;;5116302;28;20052;-78
2022/04/19 04:53:13;;;;;;;15.00;9.05;;;5.10;99.90;;;;;;5115571;28;20039;-78
2022/04/19 04:55:39;;;;;;;12.85;8.10;;;5.10;99.90;;;;;;5114656;28;20075;-77
2022/04/19 04:58:05;;;;;;;16.88;8.52;;;5.20;99.90;;;;;;5115607;28;20078;-78
2022/04/19 05:00:30;;;;;;;13.82;8.52;;;5.10;99.90;;;;;;5115363;28;20498;-78
2022/04/19 05:02:56;;;;;;;13.15;7.68;;;5.20;99.90;;;;;;5115271;28;20040;-78
2022/04/19 05:05:22;;;;;;;15.50;8.23;;;5.10;99.90;;;;;;5115421;28;20471;-80
2022/04/19 05:07:48;;;;;;;15.55;7.70;;;5.20;99.90;;;;;;5115459;28;20139;-79
2022/04/19 05:10:14;;;;;;;16.25;8.48;;;5.20;99.90;;;;;;5115413;28;20079;-80
2022/04/19 05:12:40;;;;;;;15.25;8.25;;;5.20;99.90;;;;;;5115136;28;20522;-80
2022/04/19 05:15:06;;;;;;;14.38;8.55;;;5.20;99.90;;;;;;5115274;28;20051;-80
2022/04/19 05:17:31;;;;;;;13.07;7.88;;;5.20;99.90;;;;;;5115158;28;20040;-80
2022/04/19 05:19:57;;;;;;;12.80;8.27;;;5.30;99.90;;;;;;5115192;28;20073;-78
2022/04/19 05:22:23;;;;;;;10.88;7.32;;;5.30;99.90;;;;;;5113885;28;20108;-76
2022/04/19 05:24:49;;;;;;;14.32;8.43;;;5.30;99.90;;;;;;5115061;28;20422;-79
2022/04/19 05:27:14;;;;;;;12.77;8.35;;;5.40;99.90;;;;;;5115175;28;20383;-79
2022/04/19 05:29:40;;;;;;;12.43;7.88;;;5.40;99.90;;;;;;5114863;28;20043;-79
2022/04/19 05:32:06;;;;;;;16.70;7.93;;;5.50;99.90;;;;;;5114687;28;20083;-78
2022/04/19 05:34:31;;;;;;;12.80;7.57;;;5.50;99.90;;;;;;5113608;28;20048;-79
2022/04/19 05:36:57;;;;;;;12.88;7.72;;;5.50;99.90;;;;;;5114753;28;20036;-77
2022/04/19 05:39:23;;;;;;;15.13;7.65;;;5.60;99.90;;;;;;5114726;28;20101;-78
2022/04/19 05:41:48;;;;;;;12.05;7.03;;;5.80;99.90;;;;;;5114618;28;20040;-78
2022/04/19 05:44:14;;;;;;;12.95;6.50;;;5.90;99.90;;;;;;5114740;28;20131;-78
2022/04/19 05:46:40;;;;;;;12.70;7.10;;;6.10;99.90;;;;;;5114540;28;20121;-78
2022/04/19 05:49:05;;;;;;;9.23;5.70;;;6.30;99.90;;;;;;5114651;28;20436;-77
2022/04/19 05:51:34;;;;;;;12.20;6.30;;;6.40;99.90;;;;;;5114625;28;20514;-78
2022/04/19 05:54:00;;;;;;;11.10;5.97;;;6.50;99.90;;;;;;5114151;28;20046;-79
2022/04/19 05:56:26;;;;;;;11.43;6.38;;;6.70;99.90;;;;;;5114451;28;20044;-78
2022/04/19 05:58:52;;;;;;;12.93;6.63;;;6.80;99.90;;;;;;5114515;28;20365;-78
2022/04/19 06:01:18;;;;;;;10.80;6.30;;;6.90;99.90;;;;;;5114404;28;20100;-79
2022/04/19 06:06:28;;;;;;;10.13;6.43;;;7.20;99.90;;;;;;5114442;28;20105;-79
2022/04/19 06:08:53;;;;;;;14.48;6.55;;;7.30;99.90;;;;;;5114434;28;20052;-78
2022/04/19 06:11:19;;;;;;;10.52;6.10;;;7.40;99.90;;;;;;5114421;28;20054;-78
2022/04/19 06:13:45;;;;;;;10.82;6.13;;;7.60;99.90;;;;;;5114286;28;20198;-79
2022/04/19 06:16:10;;;;;;;9.57;6.47;;;7.70;99.90;;;;;;5114038;28;20096;-79
2022/04/19 06:18:36;;;;;;;9.65;6.32;;;7.80;99.90;;;;;;5113015;28;20435;-78
2022/04/19 06:21:04;;;;;;;10.60;6.65;;;7.90;99.90;;;;;;5114021;28;20074;-78
2022/04/19 06:23:31;;;;;;;10.77;6.45;;;8.00;99.90;;;;;;5114076;28;20119;-78
2022/04/19 06:25:56;;;;;;;17.10;7.23;;;8.20;99.90;;;;;;5114169;28;20082;-78
2022/04/19 06:28:22;;;;;;;9.52;6.40;;;8.40;99.90;;;;;;5112965;28;20083;-79
2022/04/19 06:30:47;;;;;;;11.45;6.47;;;8.50;99.90;;;;;;5113013;28;20040;-79
2022/04/19 06:33:13;;;;;;;11.20;6.07;;;8.70;99.90;;;;;;5114042;28;20054;-77
2022/04/19 06:35:39;;;;;;;12.35;6.30;;;8.90;99.90;;;;;;5113924;28;20145;-77
2022/04/19 06:38:04;;;;;;;10.82;6.50;;;9.00;99.90;;;;;;5113799;28;20047;-78
2022/04/19 06:40:30;;;;;;;10.60;6.30;;;9.20;99.90;;;;;;5114116;28;20136;-79
2022/04/19 06:42:57;;;;;;;10.75;6.63;;;9.40;99.90;;;;;;5113578;28;20055;-78
2022/04/19 06:45:23;;;;;;;13.65;6.97;;;9.50;99.90;;;;;;5113967;28;20127;-79
2022/04/19 06:47:56;;;;;;;11.63;6.78;;;9.70;99.90;;;;;;5113093;28;20096;-78
2022/04/19 06:50:23;;;;;;;10.38;6.13;;;9.80;99.90;;;;;;5114413;28;20391;-78
2022/04/19 06:52:49;;;;;;;10.00;6.20;;;9.90;99.90;;;;;;5114240;28;20430;-78
2022/04/19 06:55:14;;;;;;;9.60;6.13;;;10.00;99.90;;;;;;5113441;28;20055;-78
2022/04/19 06:57:41;;;;;;;10.57;5.88;;;10.30;99.90;;;;;;5113734;28;20040;-76
2022/04/19 07:00:07;;;;;;;11.38;6.07;;;10.30;99.90;;;;;;5113847;28;20039;-78
2022/04/19 07:02:33;;;;;;;9.23;6.10;;;10.40;99.90;;;;;;5112835;28;20130;-78
2022/04/19 07:04:59;;;;;;;10.68;6.20;;;10.50;99.90;;;;;;5114456;28;20083;-77
2022/04/19 07:07:25;;;;;;;10.27;6.15;;;10.60;99.90;;;;;;5116782;28;20086;-79
2022/04/19 07:09:51;;;;;;;10.50;5.70;;;10.80;99.90;;;;;;5117859;28;20149;-79
2022/04/19 07:12:19;;;;;;;12.95;6.32;;;10.80;99.90;;;;;;5117205;28;20051;-79
2022/04/19 07:14:44;;;;;;;10.70;5.63;;;11.30;99.90;;;;;;5116456;28;20511;-79
2022/04/19 07:17:10;;;;;;;8.02;5.57;;;11.10;99.90;;;;;;5117445;28;20035;-79
2022/04/19 07:27:48;;;;;;;10.10;5.55;;;11.70;99.90;;;;;;5117741;28;20478;-78
2022/04/19 07:30:16;;;;;;;9.23;5.72;;;11.90;99.90;;;;;;5116206;28;20071;-78
2022/04/19 07:32:42;;;;;;;11.35;5.63;;;12.10;99.90;;;;;;5116434;28;20040;-79
2022/04/19 07:35:08;;;;;;;8.82;5.45;;;12.30;99.90;;;;;;5117133;28;20040;-80
2022/04/19 07:37:34;;;;;;;9.75;5.32;;;12.40;99.90;;;;;;5117029;28;20070;-77
2022/04/19 07:39:59;;;;;;;8.10;4.55;;;12.50;99.90;;;;;;5115875;28;20364;-78
2022/04/19 07:42:25;;;;;;;8.55;5.40;;;12.60;99.90;;;;;;5117373;28;20032;-78
2022/04/19 07:44:51;;;;;;;8.45;4.90;;;12.80;99.90;;;;;;5117001;28;20048;-77
2022/04/19 07:47:17;;;;;;;8.38;4.97;;;12.90;99.90;;;;;;5115883;28;20124;-76
2022/04/19 07:49:43;;;;;;;8.35;4.72;;;13.00;99.90;;;;;;5116940;28;20051;-77
2022/04/19 07:52:09;;;;;;;9.35;4.72;;;13.10;99.90;;;;;;5116872;28;20045;-79
2022/04/19 07:54:36;;;;;;;9.55;4.50;;;13.20;99.90;;;;;;5116771;28;20044;-77
2022/04/19 07:57:02;;;;;;;7.35;4.90;;;13.20;99.90;;;;;;5116853;27;20055;-78
2022/04/19 07:59:28;;;;;;;9.32;5.22;;;13.30;99.90;;;;;;5117085;28;20067;-78
2022/04/19 08:01:53;;;;;;;8.07;4.68;;;13.30;99.90;;;;;;5115792;28;20044;-78
2022/04/19 08:04:20;;;;;;;8.07;4.60;;;13.30;99.90;;;;;;5116243;28;20048;-78
2022/04/19 08:06:46;;;;;;;7.90;4.32;;;13.40;99.90;;;;;;5116229;28;20050;-78
2022/04/19 08:09:11;;;;;;;8.52;4.63;;;13.40;99.90;;;;;;5116925;28;20099;-79
2022/04/19 08:11:37;;;;;;;7.93;4.65;;;13.40;99.90;;;;;;5116245;28;20066;-80
2022/04/19 08:14:02;;;;;;;7.30;4.10;;;13.50;99.90;;;;;;5115475;28;20060;-79
2022/04/19 08:16:28;;;;;;;7.25;4.50;;;13.60;99.90;;;;;;5115943;28;20036;-78
2022/04/19 08:18:54;;;;;;;10.30;4.82;;;13.70;99.90;;;;;;5116285;28;20058;-79
2022/04/19 08:21:19;;;;;;;7.35;4.60;;;13.80;99.90;;;;;;5116238;28;20123;-79
2022/04/19 08:23:45;;;;;;;9.25;5.10;;;13.90;99.90;;;;;;5115816;28;20039;-78
2022/04/19 08:26:10;;;;;;;7.18;3.97;;;14.00;99.90;;;;;;5115843;28;20048;-78
2022/04/19 08:28:36;;;;;;;5.97;4.13;;;14.00;99.90;;;;;;5116660;28;20043;-79
2022/04/19 08:31:01;;;;;;;7.82;4.10;;;14.10;99.90;;;;;;5116379;28;20043;-79
2022/04/19 08:33:27;;;;;;;6.43;4.20;;;14.20;99.90;;;;;;5115945;28;20122;-78
2022/04/19 08:35:53;;;;;;;6.65;4.10;;;14.20;99.90;;;;;;5115924;28;20040;-78
2022/04/19 08:38:18;;;;;;;7.00;4.30;;;14.20;99.90;;;;;;5115838;28;20460;-78
2022/04/19 08:40:44;;;;;;;7.38;3.90;;;14.30;99.90;;;;;;5115687;28;20084;-78
2022/04/19 08:43:11;;;;;;;5.78;3.92;;;14.20;99.90;;;;;;5116071;28;20082;-79
2022/04/19 08:45:37;;;;;;;4.45;2.92;;;14.20;99.90;;;;;;5115671;28;20075;-77
2022/04/19 08:48:09;;;;;;;9.25;3.10;;;14.40;99.90;;;;;;5132059;27;20083;-77
2022/04/19 08:50:35;;;;;;;8.57;3.17;;;14.40;99.90;;;;;;5115652;28;20044;-77
2022/04/19 08:58:29;;;;;;;5.03;2.85;;;14.90;99.30;;;;;;5116024;28;20062;-78
2022/04/19 09:00:55;;;;;;;2.95;2.10;;;15.00;98.90;;;;;;5115709;28;20403;-79
2022/04/19 09:03:21;;;;;;;7.68;3.00;;;15.00;97.00;;;;;;5115279;28;20052;-80
2022/04/19 09:05:51;;;;;;;5.37;2.20;;;15.00;94.40;;;;;;5115521;28;20058;-78
2022/04/19 09:08:18;;;;;;;3.47;2.20;;;15.00;93.80;;;;;;5115514;28;20044;-78
2022/04/19 09:10:43;;;;;;;5.30;2.20;;;15.10;94.90;;;;;;5115455;28;20070;-77
2022/04/19 09:13:11;;;;;;;7.63;2.63;;;15.20;94.30;;;;;;5113873;28;20055;-77
2022/04/19 09:15:38;;;;;;;4.10;2.60;;;15.20;92.80;;;;;;5115070;28;20479;-79
2022/04/19 09:18:19;;;;;;;4.45;2.53;;;15.30;92.10;;;;;;5114883;28;20043;-79
2022/04/19 09:20:50;;;;;;;3.97;2.20;;;15.40;92.70;;;;;;5115801;28;20039;-77
2022/04/19 09:23:16;;;;;;;5.75;2.08;;;15.50;90.90;;;;;;5115279;28;20040;-80
2022/04/19 09:25:43;;;;;;;7.70;2.30;;;15.50;90.80;;;;;;5114806;28;20483;-80
2022/04/19 09:28:17;;;;;;;3.67;2.47;;;15.50;90.60;;;;;;5114138;28;20533;-79
2022/04/19 09:30:45;;;;;;;5.75;1.90;;;15.60;88.80;;;;;;5114758;28;20047;-80
2022/04/19 09:33:21;;;;;;;4.22;2.40;;;15.60;89.90;;;;;;5115083;28;20044;-79
2022/04/19 09:35:55;;;;;;;3.83;2.22;;;15.70;90.50;;;;;;5115147;28;20035;-79
2022/04/19 09:38:37;;;;;;;3.72;2.10;;;15.70;90.40;;;;;;5114703;28;20044;-79
2022/04/19 09:41:04;;;;;;;3.70;2.25;;;15.90;90.30;;;;;;5114647;28;20079;-80
2022/04/19 09:43:30;;;;;;;3.88;2.60;;;15.90;90.30;;;;;;5114642;27;20044;-79
2022/04/19 09:46:04;;;;;;;4.77;2.20;;;15.90;90.30;;;;;;5114656;28;20076;-79
2022/04/19 09:48:33;;;;;;;4.13;2.35;;;15.90;89.90;;;;;;5114582;28;20086;-79
2022/04/19 09:51:06;;;;;;;2.95;1.92;;;15.90;88.30;;;;;;5114557;28;20514;-78
2022/04/19 09:53:48;;;;;;;2.97;2.00;;;16.00;87.10;;;;;;5114307;27;20388;-79
2022/04/19 09:56:15;;;;;;;3.72;1.98;;;16.10;87.80;;;;;;5114754;28;20039;-80
2022/04/19 09:58:44;;;;;;;5.07;2.03;;;16.20;88.60;;;;;;5114235;28;20050;-80
2022/04/19 10:09:24;;;;;;;3.13;1.30;;;16.20;82.30;;;;;;5114421;28;20407;-79
2022/04/19 10:11:51;;;;;;;2.53;1.42;;;16.30;83.70;;;;;;5114198;28;20067;-77
2022/04/19 10:14:18;;;;;;;7.53;1.70;;;16.30;84.90;;;;;;5114054;28;20148;-79
2022/04/19 10:16:44;;;;;;;2.65;1.65;;;16.40;82.70;;;;;;5114019;28;20044;-78
2022/04/19 10:19:11;;;;;;;2.72;1.50;;;16.50;84.40;;;;;;5114125;28;20043;-78
2022/04/19 10:21:41;;;;;;;5.30;1.70;;;16.60;82.50;;;;;;5112890;28;20475;-78
2022/04/19 10:24:12;;;;;;;3.35;1.33;;;16.60;83.50;;;;;;5114034;28;20047;-79
2022/04/19 10:26:53;;;;;;;4.60;1.75;;;16.60;83.00;;;;;;5114165;28;20055;-78
2022/04/19 10:29:29;;;;;;;3.80;1.33;;;16.70;81.20;;;;;;5114498;28;20391;-78
2022/04/19 10:32:01;;;;;;;2.30;1.30;;;16.80;82.10;;;;;;5114775;28;20085;-78
2022/04/19 10:34:28;;;;;;;5.05;1.55;;;16.90;81.80;;;;;;5115228;28;20090;-78
2022/04/19 10:37:00;;;;;;;3.80;1.50;;;17.00;82.80;;;;;;5116056;28;20475;-77
2022/04/19 10:39:32;;;;;;;5.85;1.42;;;17.00;81.60;;;;;;5117825;28;20476;-78
2022/04/19 10:42:02;;;;;;;2.83;1.58;;;17.20;82.60;;;;;;5121090;28;20105;-80
2022/04/19 10:44:36;;;;;;;4.82;1.45;;;17.00;80.60;;;;;;5122590;28;20043;-78
2022/04/19 10:47:13;;;;;;;2.85;1.50;;;17.20;82.50;;;;;;5122284;28;20057;-80
2022/04/19 10:49:57;;;;;;;6.63;1.50;;;17.10;81.40;;;;;;5124160;28;20049;-79
2022/04/19 10:52:38;;;;;;;2.97;1.80;;;17.20;83.20;;;;;;5121153;28;20094;-80
2022/04/19 10:55:24;;;;;;;2.55;1.50;;;17.20;83.30;;;;;;5120911;28;20444;-79
2022/04/19 10:58:08;;;;;;;3.92;1.48;;;17.30;82.70;;;;;;5120834;27;20479;-77
2022/04/19 11:00:34;;;;;;;7.07;1.45;;;17.30;82.90;;;;;;5123540;28;20048;-79
2022/04/19 11:03:05;;;;;;;4.13;1.40;;;17.30;82.60;;;;;;5125398;28;20048;-78
2022/04/19 11:05:44;;;;;;;2.50;1.52;;;17.40;82.40;;;;;;5119927;28;20050;-78
2022/04/19 11:08:22;;;;;;;3.50;1.60;;;17.50;81.10;;;;;;5119166;28;20036;-79
2022/04/19 11:10:49;;;;;;;2.55;1.40;;;17.50;81.00;;;;;;5118411;28;20054;-79
2022/04/19 11:13:14;;;;;;;2.75;1.77;;;17.50;81.40;;;;;;5118293;28;20059;-80
2022/04/19 11:15:42;;;;;;;3.97;1.40;;;17.40;81.70;;;;;;5117989;28;20497;-79
2022/04/19 11:18:25;;;;;;;3.13;1.73;;;17.40;82.40;;;;;;5117102;28;20039;-79
2022/04/19 11:20:52;;;;;;;3.17;1.60;;;17.40;81.90;;;;;;5118086;28;20054;-78
2022/04/19 11:23:20;;;;;;;1.85;1.13;;;17.50;82.10;;;;;;5118042;28;20096;-79
2022/04/19 11:25:46;;;;;;;3.78;1.30;;;17.70;80.60;;;;;;5116646;28;20104;-80
2022/04/19 11:28:11;;;;;;;5.77;1.60;;;17.80;80.30;;;;;;5117880;28;20056;-80
2022/04/19 11:30:43;;;;;;;2.40;1.60;;;17.60;82.60;;;;;;5117497;28;20050;-79
2022/04/19 11:33:08;;;;;;;3.17;1.50;;;17.60;82.00;;;;;;5117464;27;20046;-78
2022/04/19 11:35:34;;;;;;;2.27;1.60;;;17.50;80.00;;;;;;5117375;28;20043;-78
2022/04/19 11:38:13;;;;;;;3.23;1.87;;;17.60;81.60;;;;;;5117162;28;20483;-80
2022/04/19 11:49:04;;;;;;;2.58;1.50;;;18.00;80.70;;;;;;5117011;28;20048;-80
2022/04/19 11:51:32;;;;;;;3.03;1.50;;;18.00;80.20;;;;;;5115957;28;20051;-79
2022/04/19 11:53:57;;;;;;;2.85;1.83;;;18.10;81.60;;;;;;5116899;28;20063;-78
2022/04/19 11:56:24;;;;;;;4.27;1.90;;;18.20;81.60;;;;;;5117020;28;20043;-79
2022/04/19 11:58:52;;;;;;;3.88;1.98;;;18.30;80.70;;;;;;5115647;28;20483;-79
2022/04/19 12:01:18;;;;;;;5.88;1.83;;;18.20;80.90;;;;;;5116375;28;20043;-78
2022/04/19 12:03:43;;;;;;;3.63;1.80;;;18.20;82.10;;;;;;5116842;28;20047;-79
2022/04/19 12:06:11;;;;;;;4.97;1.80;;;18.30;79.80;;;;;;5116891;28;20299;-79
2022/04/19 12:08:41;;;;;;;3.28;1.55;;;18.30;79.60;;;;;;5116545;28;20108;-79
2022/04/19 12:11:08;;;;;;;3.83;1.50;;;18.40;79.50;;;;;;5116388;28;20044;-79
2022/04/19 12:13:35;;;;;;;4.72;1.25;;;18.50;77.50;;;;;;5116702;28;20070;-79
2022/04/19 12:16:03;;;;;;;3.20;1.40;;;18.50;78.90;;;;;;5116469;28;20051;-79
2022/04/19 12:18:34;;;;;;;5.07;1.50;;;18.50;77.90;;;;;;5115485;28;20044;-80
2022/04/19 12:21:01;;;;;;;2.75;1.25;;;18.50;76.40;;;;;;5115269;28;20463;-80
2022/04/19 12:23:27;;;;;;;2.00;1.13;;;18.50;77.90;;;;;;5116106;28;20051;-78
2022/04/19 12:26:04;;;;;;;2.40;1.37;;;18.60;76.90;;;;;;5116066;28;20051;-78
2022/04/19 12:28:34;;;;;;;;;;;18.70;76.40;;;;;;5116198;28;20044;-80
2022/04/19 12:30:59;;;;;;;1.42;0.98;;;18.70;74.50;;;;;;5116003;28;19959;-78
2022/04/19 12:33:25;;;;;;;3.37;1.30;;;18.80;77.10;;;;;;5116035;28;20039;-79
2022/04/19 12:35:53;;;;;;;3.10;1.60;;;18.90;77.50;;;;;;5115972;28;20074;-80
2022/04/19 12:38:27;;;;;;;7.57;1.80;;;18.90;75.00;;;;;;5115213;28;20043;-79
2022/04/19 12:40:53;;;;;;;4.40;1.80;;;19.00;77.60;;;;;;5116060;28;20040;-80
2022/04/19 12:43:19;;;;;;;4.03;1.70;;;19.00;76.10;;;;;;5116497;28;20046;-79
2022/04/19 12:45:46;;;;;;;6.15;1.70;;;19.00;75.40;;;;;;5098509;28;20425;-81
2022/04/19 12:48:22;;;;;;;2.75;1.55;;;19.00;74.50;;;;;;5115762;28;20054;-80
2022/04/19 12:50:58;;;;;;;3.42;2.10;;;19.10;75.70;;;;;;5115620;28;20104;-79
2022/04/19 12:53:24;;;;;;;3.03;1.67;;;19.10;75.80;;;;;;5115798;28;20039;-78
2022/04/19 12:55:50;;;;;;;2.40;1.60;;;19.10;76.80;;;;;;5115638;28;20054;-79
2022/04/19 12:58:16;;;;;;;2.57;1.67;;;19.10;76.00;;;;;;5114256;28;20055;-79
2022/04/19 13:00:41;;;;;;;2.37;1.63;;;19.20;74.40;;;;;;5115424;28;20437;-79
2022/04/19 13:03:07;;;;;;;2.70;1.60;;;19.10;74.00;;;;;;5114515;28;20047;-79
2022/04/19 13:13:45;;;;;;;3.95;1.77;;;18.90;75.90;;;;;;5115216;28;20047;-78
2022/04/19 13:16:11;;;;;;;3.93;1.80;;;19.00;75.40;;;;;;5115108;28;20073;-77
2022/04/19 13:18:37;;;;;;;2.00;1.47;;;19.00;74.00;;;;;;5115180;28;20412;-78
2022/04/19 13:21:03;;;;;;;2.87;1.50;;;18.90;75.30;;;;;;5115190;28;20281;-78
2022/04/19 13:23:29;;;;;;;5.05;2.00;;;19.00;74.80;;;;;;5114118;28;20471;-79
2022/04/19 13:25:55;;;;;;;3.33;1.93;;;19.00;73.90;;;;;;5115044;28;20093;-78
2022/04/19 13:28:25;;;;;;;4.40;1.77;;;19.10;75.00;;;;;;5115057;28;20051;-79
2022/04/19 13:30:51;;;;;;;4.60;1.83;;;19.20;74.50;;;;;;5115145;28;20479;-79
2022/04/19 13:33:17;;;;;;;3.13;2.15;;;19.10;73.10;;;;;;5115086;28;20084;-79
2022/04/19 13:35:42;;;;;;;6.73;2.33;;;19.10;73.90;;;;;;5114885;28;20491;-78
2022/04/19 13:38:23;;;;;;;2.77;1.73;;;19.00;73.20;;;;;;5114719;28;20046;-79
2022/04/19 13:40:48;;;;;;;7.10;1.90;;;19.10;72.30;;;;;;5113621;28;20544;-78